sensor_id;sensor_type;location;lat;lon;timestamp;temperature;humidity
50544;DHT22;41176;44.032;20.900;2023-07-16T00:00:12;24.70;99.90
50544;DHT22;41176;44.032;20.900;2023-07-16T00:02:38;24.60;99.90
50544;DHT22;41176;44.032;20.900;2023-07-16T00:05:04;24.50;99.90
50544;DHT22;41176;44.032;20.900;2023-07-16T00:07:31;24.60;99.90
50544;DHT22;41176;44.032;20.900;2023-07-16T00:09:56;24.60;99.90
50544;DHT22;41176;44.032;20.900;2023-07-16T00:12:22;24.50;99.90
50544;DHT22;41176;44.032;20.900;2023-07-16T00:14:48;24.50;99.90
50544;DHT22;41176;44.032;20.900;2023-07-16T00:17:14;24.50;99.90
50544;DHT22;41176;44.032;20.900;2023-07-16T00:19:40;24.50;99.90
50544;DHT22;41176;44.032;20.900;2023-07-16T00:22:05;24.50;99.90
50544;DHT22;41176;44.032;20.900;2023-07-16T00:24:31;24.50;99.90
50544;DHT22;41176;44.032;20.900;2023-07-16T00:26:57;24.50;99.90
50544;DHT22;41176;44.032;20.900;2023-07-16T00:29:23;24.60;99.90
50544;DHT22;41176;44.032;20.900;2023-07-16T00:31:49;24.60;99.90
50544;DHT22;41176;44.032;20.900;2023-07-16T00:34:15;24.50;99.90
50544;DHT22;41176;44.032;20.900;2023-07-16T00:36:41;24.40;99.90
50544;DHT22;41176;44.032;20.900;2023-07-16T00:39:06;24.40;99.90
50544;DHT22;41176;44.032;20.900;2023-07-16T00:41:32;24.40;99.90
50544;DHT22;41176;44.032;20.900;2023-07-16T00:43:58;24.30;99.90
50544;DHT22;41176;44.032;20.900;2023-07-16T00:46:24;24.20;99.90
50544;DHT22;41176;44.032;20.900;2023-07-16T00:48:50;24.20;99.90
50544;DHT22;41176;44.032;20.900;2023-07-16T00:51:18;24.20;99.90
50544;DHT22;41176;44.032;20.900;2023-07-16T00:53:44;24.20;99.90
50544;DHT22;41176;44.032;20.900;2023-07-16T00:56:11;24.10;99.90
50544;DHT22;41176;44.032;20.900;2023-07-16T00:58:38;24.10;99.90
50544;DHT22;41176;44.032;20.900;2023-07-16T01:01:04;24.00;99.90
50544;DHT22;41176;44.032;20.900;2023-07-16T01:03:30;24.00;99.90
50544;DHT22;41176;44.032;20.900;2023-07-16T01:06:41;24.00;99.90
50544;DHT22;41176;44.032;20.900;2023-07-16T01:09:10;23.90;99.90
50544;DHT22;41176;44.032;20.900;2023-07-16T01:11:37;24.00;99.90
50544;DHT22;41176;44.032;20.900;2023-07-16T01:14:05;23.90;99.90
50544;DHT22;41176;44.032;20.900;2023-07-16T01:16:32;23.90;99.90
50544;DHT22;41176;44.032;20.900;2023-07-16T01:18:58;23.90;99.90
50544;DHT22;41176;44.032;20.900;2023-07-16T01:21:24;23.90;99.90
50544;DHT22;41176;44.032;20.900;2023-07-16T01:24:13;24.00;99.90
50544;DHT22;41176;44.032;20.900;2023-07-16T01:27:17;24.00;99.90
50544;DHT22;41176;44.032;20.900;2023-07-16T01:30:08;24.00;99.90
50544;DHT22;41176;44.032;20.900;2023-07-16T01:32:36;24.00;99.90
50544;DHT22;41176;44.032;20.900;2023-07-16T01:35:05;24.00;99.90
50544;DHT22;41176;44.032;20.900;2023-07-16T01:37:31;23.90;99.90
50544;DHT22;41176;44.032;20.900;2023-07-16T01:39:57;23.80;99.90
50544;DHT22;41176;44.032;20.900;2023-07-16T01:42:23;23.90;99.90
50544;DHT22;41176;44.032;20.900;2023-07-16T01:44:49;23.90;99.90
50544;DHT22;41176;44.032;20.900;2023-07-16T01:49:56;23.80;99.90
50544;DHT22;41176;44.032;20.900;2023-07-16T01:52:22;23.80;99.90
50544;DHT22;41176;44.032;20.900;2023-07-16T01:54:48;23.70;99.90
50544;DHT22;41176;44.032;20.900;2023-07-16T01:57:14;23.70;99.90
50544;DHT22;41176;44.032;20.900;2023-07-16T01:59:39;23.70;99.90
50544;DHT22;41176;44.032;20.900;2023-07-16T02:02:05;23.70;99.90
50544;DHT22;41176;44.032;20.900;2023-07-16T02:04:31;23.70;99.90
50544;DHT22;41176;44.032;20.900;2023-07-16T02:06:57;23.70;99.90
50544;DHT22;41176;44.032;20.900;2023-07-16T02:09:23;23.60;99.90
50544;DHT22;41176;44.032;20.900;2023-07-16T02:11:49;23.60;99.90
50544;DHT22;41176;44.032;20.900;2023-07-16T02:14:14;23.60;99.90
50544;DHT22;41176;44.032;20.900;2023-07-16T02:16:41;23.70;99.90
50544;DHT22;41176;44.032;20.900;2023-07-16T02:19:12;23.70;99.90
50544;DHT22;41176;44.032;20.900;2023-07-16T02:21:37;23.70;99.90
50544;DHT22;41176;44.032;20.900;2023-07-16T02:24:03;23.70;99.90
50544;DHT22;41176;44.032;20.900;2023-07-16T02:26:29;23.80;99.90
50544;DHT22;41176;44.032;20.900;2023-07-16T02:28:55;23.80;99.90
50544;DHT22;41176;44.032;20.900;2023-07-16T02:31:21;23.80;99.90
50544;DHT22;41176;44.032;20.900;2023-07-16T02:33:46;23.90;99.90
50544;DHT22;41176;44.032;20.900;2023-07-16T02:36:12;23.90;99.90
50544;DHT22;41176;44.032;20.900;2023-07-16T02:38:38;23.90;99.90
50544;DHT22;41176;44.032;20.900;2023-07-16T02:41:06;23.80;99.90
50544;DHT22;41176;44.032;20.900;2023-07-16T02:43:32;23.80;99.90
50544;DHT22;41176;44.032;20.900;2023-07-16T02:45:58;23.80;99.90
50544;DHT22;41176;44.032;20.900;2023-07-16T02:48:24;23.70;99.90
50544;DHT22;41176;44.032;20.900;2023-07-16T02:50:49;23.80;99.90
50544;DHT22;41176;44.032;20.900;2023-07-16T02:53:15;23.80;99.90
50544;DHT22;41176;44.032;20.900;2023-07-16T02:55:41;23.80;99.90
50544;DHT22;41176;44.032;20.900;2023-07-16T02:58:07;23.70;99.90
50544;DHT22;41176;44.032;20.900;2023-07-16T03:00:33;23.70;99.90
50544;DHT22;41176;44.032;20.900;2023-07-16T03:03:00;23.70;99.90
50544;DHT22;41176;44.032;20.900;2023-07-16T03:05:27;23.70;99.90
50544;DHT22;41176;44.032;20.900;2023-07-16T03:07:53;23.70;99.90
50544;DHT22;41176;44.032;20.900;2023-07-16T03:10:19;23.80;99.90
50544;DHT22;41176;44.032;20.900;2023-07-16T03:12:45;23.80;99.90
50544;DHT22;41176;44.032;20.900;2023-07-16T03:15:11;23.80;99.90
50544;DHT22;41176;44.032;20.900;2023-07-16T03:17:36;23.80;99.90
50544;DHT22;41176;44.032;20.900;2023-07-16T03:20:02;23.70;99.90
50544;DHT22;41176;44.032;20.900;2023-07-16T03:22:31;23.80;99.90
50544;DHT22;41176;44.032;20.900;2023-07-16T03:24:56;23.70;99.90
50544;DHT22;41176;44.032;20.900;2023-07-16T03:27:22;23.60;99.90
50544;DHT22;41176;44.032;20.900;2023-07-16T03:29:48;23.50;99.90
50544;DHT22;41176;44.032;20.900;2023-07-16T03:32:14;23.50;99.90
50544;DHT22;41176;44.032;20.900;2023-07-16T03:34:40;23.40;99.90
50544;DHT22;41176;44.032;20.900;2023-07-16T03:37:05;23.40;99.90
50544;DHT22;41176;44.032;20.900;2023-07-16T03:39:31;23.30;99.90
50544;DHT22;41176;44.032;20.900;2023-07-16T03:41:57;23.40;99.90
50544;DHT22;41176;44.032;20.900;2023-07-16T03:44:23;23.40;99.90
50544;DHT22;41176;44.032;20.900;2023-07-16T03:46:49;23.40;99.90
50544;DHT22;41176;44.032;20.900;2023-07-16T03:49:14;23.30;99.90
50544;DHT22;41176;44.032;20.900;2023-07-16T03:51:40;23.40;99.90
50544;DHT22;41176;44.032;20.900;2023-07-16T03:54:06;23.40;99.90
50544;DHT22;41176;44.032;20.900;2023-07-16T03:56:31;23.40;99.90
50544;DHT22;41176;44.032;20.900;2023-07-16T03:58:57;23.40;99.90
50544;DHT22;41176;44.032;20.900;2023-07-16T04:01:23;23.40;99.90
50544;DHT22;41176;44.032;20.900;2023-07-16T04:03:49;23.50;99.90
50544;DHT22;41176;44.032;20.900;2023-07-16T04:06:14;23.60;99.90
50544;DHT22;41176;44.032;20.900;2023-07-16T04:08:40;23.70;99.90
50544;DHT22;41176;44.032;20.900;2023-07-16T04:11:06;23.70;99.90
50544;DHT22;41176;44.032;20.900;2023-07-16T04:13:32;23.80;99.90
50544;DHT22;41176;44.032;20.900;2023-07-16T04:15:58;23.90;99.90
50544;DHT22;41176;44.032;20.900;2023-07-16T04:18:27;24.00;99.90
50544;DHT22;41176;44.032;20.900;2023-07-16T04:20:53;24.10;99.90
50544;DHT22;41176;44.032;20.900;2023-07-16T04:23:19;24.10;99.90
50544;DHT22;41176;44.032;20.900;2023-07-16T04:25:45;24.20;99.90
50544;DHT22;41176;44.032;20.900;2023-07-16T04:28:11;24.30;99.90
50544;DHT22;41176;44.032;20.900;2023-07-16T04:30:37;24.40;99.90
50544;DHT22;41176;44.032;20.900;2023-07-16T04:33:06;24.50;99.90
50544;DHT22;41176;44.032;20.900;2023-07-16T04:35:32;24.50;99.90
50544;DHT22;41176;44.032;20.900;2023-07-16T04:37:59;24.70;99.90
50544;DHT22;41176;44.032;20.900;2023-07-16T04:40:24;24.80;99.90
50544;DHT22;41176;44.032;20.900;2023-07-16T04:42:50;24.80;99.90
50544;DHT22;41176;44.032;20.900;2023-07-16T04:45:16;24.90;99.90
50544;DHT22;41176;44.032;20.900;2023-07-16T04:47:42;24.90;99.90
50544;DHT22;41176;44.032;20.900;2023-07-16T04:50:08;25.00;99.90
50544;DHT22;41176;44.032;20.900;2023-07-16T04:52:34;24.90;99.90
50544;DHT22;41176;44.032;20.900;2023-07-16T04:55:00;24.90;99.90
50544;DHT22;41176;44.032;20.900;2023-07-16T04:57:26;24.90;99.90
50544;DHT22;41176;44.032;20.900;2023-07-16T04:59:51;25.00;99.90
50544;DHT22;41176;44.032;20.900;2023-07-16T05:02:17;25.10;99.90
50544;DHT22;41176;44.032;20.900;2023-07-16T05:04:43;25.10;99.90
50544;DHT22;41176;44.032;20.900;2023-07-16T05:07:10;25.20;99.90
50544;DHT22;41176;44.032;20.900;2023-07-16T05:09:36;25.30;99.90
50544;DHT22;41176;44.032;20.900;2023-07-16T05:12:01;25.40;99.90
50544;DHT22;41176;44.032;20.900;2023-07-16T05:14:28;25.50;99.90
50544;DHT22;41176;44.032;20.900;2023-07-16T05:16:54;25.50;99.90
50544;DHT22;41176;44.032;20.900;2023-07-16T05:19:20;25.50;99.90
50544;DHT22;41176;44.032;20.900;2023-07-16T05:21:46;25.60;99.90
50544;DHT22;41176;44.032;20.900;2023-07-16T05:24:11;25.60;99.90
50544;DHT22;41176;44.032;20.900;2023-07-16T05:26:38;25.70;99.90
50544;DHT22;41176;44.032;20.900;2023-07-16T05:29:03;25.80;99.90
50544;DHT22;41176;44.032;20.900;2023-07-16T05:31:29;26.00;99.90
50544;DHT22;41176;44.032;20.900;2023-07-16T05:33:55;26.10;99.90
50544;DHT22;41176;44.032;20.900;2023-07-16T05:36:21;26.20;99.90
50544;DHT22;41176;44.032;20.900;2023-07-16T05:38:53;26.30;99.90
50544;DHT22;41176;44.032;20.900;2023-07-16T05:41:19;26.30;99.90
50544;DHT22;41176;44.032;20.900;2023-07-16T05:43:44;26.40;99.90
50544;DHT22;41176;44.032;20.900;2023-07-16T05:46:10;26.50;99.90
50544;DHT22;41176;44.032;20.900;2023-07-16T05:48:36;26.70;99.90
50544;DHT22;41176;44.032;20.900;2023-07-16T05:51:04;26.70;99.90
50544;DHT22;41176;44.032;20.900;2023-07-16T05:53:30;26.80;99.90
50544;DHT22;41176;44.032;20.900;2023-07-16T05:55:55;26.90;99.90
50544;DHT22;41176;44.032;20.900;2023-07-16T05:58:21;27.10;99.90
50544;DHT22;41176;44.032;20.900;2023-07-16T06:00:47;27.20;99.90
50544;DHT22;41176;44.032;20.900;2023-07-16T06:03:12;27.40;99.90
50544;DHT22;41176;44.032;20.900;2023-07-16T06:05:38;27.40;99.90
50544;DHT22;41176;44.032;20.900;2023-07-16T06:08:04;27.50;99.90
50544;DHT22;41176;44.032;20.900;2023-07-16T06:10:29;27.60;99.90
50544;DHT22;41176;44.032;20.900;2023-07-16T06:12:55;27.70;99.90
50544;DHT22;41176;44.032;20.900;2023-07-16T06:15:21;27.90;99.90
50544;DHT22;41176;44.032;20.900;2023-07-16T06:17:47;28.00;99.90
50544;DHT22;41176;44.032;20.900;2023-07-16T06:20:12;28.00;99.90
50544;DHT22;41176;44.032;20.900;2023-07-16T06:22:38;28.20;99.90
50544;DHT22;41176;44.032;20.900;2023-07-16T06:25:04;28.50;99.90
50544;DHT22;41176;44.032;20.900;2023-07-16T06:27:30;28.60;99.90
50544;DHT22;41176;44.032;20.900;2023-07-16T06:29:56;28.70;99.90
50544;DHT22;41176;44.032;20.900;2023-07-16T06:32:22;28.80;99.90
50544;DHT22;41176;44.032;20.900;2023-07-16T06:34:47;28.80;99.90
50544;DHT22;41176;44.032;20.900;2023-07-16T06:37:13;29.20;99.90
50544;DHT22;41176;44.032;20.900;2023-07-16T06:39:39;29.40;99.90
50544;DHT22;41176;44.032;20.900;2023-07-16T06:42:05;29.60;99.90
50544;DHT22;41176;44.032;20.900;2023-07-16T06:44:30;29.60;99.90
50544;DHT22;41176;44.032;20.900;2023-07-16T06:46:59;29.50;99.70
50544;DHT22;41176;44.032;20.900;2023-07-16T06:49:29;29.30;99.30
50544;DHT22;41176;44.032;20.900;2023-07-16T06:51:55;29.40;99.80
50544;DHT22;41176;44.032;20.900;2023-07-16T06:54:20;29.50;99.70
50544;DHT22;41176;44.032;20.900;2023-07-16T06:56:54;29.70;99.90
50544;DHT22;41176;44.032;20.900;2023-07-16T06:59:19;29.90;98.80
50544;DHT22;41176;44.032;20.900;2023-07-16T07:01:45;30.10;98.60
50544;DHT22;41176;44.032;20.900;2023-07-16T07:04:11;30.40;98.90
50544;DHT22;41176;44.032;20.900;2023-07-16T07:06:40;30.40;95.70
50544;DHT22;41176;44.032;20.900;2023-07-16T07:09:06;30.40;95.60
50544;DHT22;41176;44.032;20.900;2023-07-16T07:11:43;30.60;95.20
50544;DHT22;41176;44.032;20.900;2023-07-16T07:14:12;30.60;94.90
50544;DHT22;41176;44.032;20.900;2023-07-16T07:16:43;30.70;94.30
50544;DHT22;41176;44.032;20.900;2023-07-16T07:19:19;30.70;93.80
50544;DHT22;41176;44.032;20.900;2023-07-16T07:21:45;30.90;93.40
50544;DHT22;41176;44.032;20.900;2023-07-16T07:24:13;31.10;93.30
50544;DHT22;41176;44.032;20.900;2023-07-16T07:26:39;31.30;92.50
50544;DHT22;41176;44.032;20.900;2023-07-16T07:29:05;31.70;91.10
50544;DHT22;41176;44.032;20.900;2023-07-16T07:31:30;32.00;89.60
50544;DHT22;41176;44.032;20.900;2023-07-16T07:33:56;32.40;88.40
50544;DHT22;41176;44.032;20.900;2023-07-16T07:36:25;32.70;87.50
50544;DHT22;41176;44.032;20.900;2023-07-16T07:38:50;33.20;85.90
50544;DHT22;41176;44.032;20.900;2023-07-16T07:41:16;33.90;83.00
50544;DHT22;41176;44.032;20.900;2023-07-16T07:43:42;34.20;81.40
50544;DHT22;41176;44.032;20.900;2023-07-16T07:46:10;34.30;78.50
50544;DHT22;41176;44.032;20.900;2023-07-16T07:48:36;34.70;77.60
50544;DHT22;41176;44.032;20.900;2023-07-16T07:51:06;34.90;77.20
50544;DHT22;41176;44.032;20.900;2023-07-16T07:53:32;35.40;76.40
50544;DHT22;41176;44.032;20.900;2023-07-16T07:56:04;35.70;74.90
50544;DHT22;41176;44.032;20.900;2023-07-16T07:58:29;36.00;73.10
50544;DHT22;41176;44.032;20.900;2023-07-16T08:00:55;36.20;73.30
50544;DHT22;41176;44.032;20.900;2023-07-16T08:03:21;36.00;72.00
50544;DHT22;41176;44.032;20.900;2023-07-16T08:05:49;36.20;71.30
50544;DHT22;41176;44.032;20.900;2023-07-16T08:08:15;36.50;70.30
50544;DHT22;41176;44.032;20.900;2023-07-16T08:10:42;36.70;69.20
50544;DHT22;41176;44.032;20.900;2023-07-16T08:13:08;37.00;69.10
50544;DHT22;41176;44.032;20.900;2023-07-16T08:15:33;36.90;68.50
50544;DHT22;41176;44.032;20.900;2023-07-16T08:17:59;36.90;68.60
50544;DHT22;41176;44.032;20.900;2023-07-16T08:20:26;37.20;68.40
50544;DHT22;41176;44.032;20.900;2023-07-16T08:22:52;37.50;66.80
50544;DHT22;41176;44.032;20.900;2023-07-16T08:25:17;38.10;66.40
50544;DHT22;41176;44.032;20.900;2023-07-16T08:27:44;38.40;63.90
50544;DHT22;41176;44.032;20.900;2023-07-16T08:30:09;38.40;65.60
50544;DHT22;41176;44.032;20.900;2023-07-16T08:32:36;37.90;64.80
50544;DHT22;41176;44.032;20.900;2023-07-16T08:35:02;37.70;64.10
50544;DHT22;41176;44.032;20.900;2023-07-16T08:37:29;37.40;64.80
50544;DHT22;41176;44.032;20.900;2023-07-16T08:39:54;37.60;66.10
50544;DHT22;41176;44.032;20.900;2023-07-16T08:42:20;37.40;65.70
50544;DHT22;41176;44.032;20.900;2023-07-16T08:44:48;37.60;64.60
50544;DHT22;41176;44.032;20.900;2023-07-16T08:47:16;37.40;65.20
50544;DHT22;41176;44.032;20.900;2023-07-16T08:49:55;37.50;65.40
50544;DHT22;41176;44.032;20.900;2023-07-16T08:52:21;37.40;64.90
50544;DHT22;41176;44.032;20.900;2023-07-16T08:54:47;37.40;67.60
50544;DHT22;41176;44.032;20.900;2023-07-16T08:57:14;37.20;66.50
50544;DHT22;41176;44.032;20.900;2023-07-16T08:59:40;36.70;67.70
50544;DHT22;41176;44.032;20.900;2023-07-16T09:02:06;36.20;67.80
50544;DHT22;41176;44.032;20.900;2023-07-16T09:04:32;35.70;69.40
50544;DHT22;41176;44.032;20.900;2023-07-16T09:06:58;35.30;70.70
50544;DHT22;41176;44.032;20.900;2023-07-16T09:09:24;35.10;72.80
50544;DHT22;41176;44.032;20.900;2023-07-16T09:11:50;35.20;73.10
50544;DHT22;41176;44.032;20.900;2023-07-16T09:14:20;35.30;72.40
50544;DHT22;41176;44.032;20.900;2023-07-16T09:16:50;34.70;70.90
50544;DHT22;41176;44.032;20.900;2023-07-16T09:19:16;34.50;72.10
50544;DHT22;41176;44.032;20.900;2023-07-16T09:21:53;34.10;72.70
50544;DHT22;41176;44.032;20.900;2023-07-16T09:24:19;34.00;73.50
50544;DHT22;41176;44.032;20.900;2023-07-16T09:26:52;34.00;74.80
50544;DHT22;41176;44.032;20.900;2023-07-16T09:29:19;34.10;74.10
50544;DHT22;41176;44.032;20.900;2023-07-16T09:31:53;34.20;73.60
50544;DHT22;41176;44.032;20.900;2023-07-16T09:34:20;34.30;74.30
50544;DHT22;41176;44.032;20.900;2023-07-16T09:36:49;34.40;75.20
50544;DHT22;41176;44.032;20.900;2023-07-16T09:39:17;34.50;75.40
50544;DHT22;41176;44.032;20.900;2023-07-16T09:41:44;34.50;77.00
50544;DHT22;41176;44.032;20.900;2023-07-16T09:44:11;34.60;72.60
50544;DHT22;41176;44.032;20.900;2023-07-16T09:46:40;34.40;72.10
50544;DHT22;41176;44.032;20.900;2023-07-16T09:49:07;34.30;72.20
50544;DHT22;41176;44.032;20.900;2023-07-16T09:51:35;34.30;72.50
50544;DHT22;41176;44.032;20.900;2023-07-16T09:54:05;34.40;74.10
50544;DHT22;41176;44.032;20.900;2023-07-16T09:56:44;34.30;74.30
50544;DHT22;41176;44.032;20.900;2023-07-16T09:59:21;34.50;74.00
50544;DHT22;41176;44.032;20.900;2023-07-16T10:01:48;34.60;73.10
50544;DHT22;41176;44.032;20.900;2023-07-16T10:04:17;34.50;72.50
50544;DHT22;41176;44.032;20.900;2023-07-16T10:06:53;34.60;72.80
50544;DHT22;41176;44.032;20.900;2023-07-16T10:09:37;34.70;72.60
50544;DHT22;41176;44.032;20.900;2023-07-16T10:12:17;34.80;72.20
50544;DHT22;41176;44.032;20.900;2023-07-16T10:14:54;34.90;71.40
50544;DHT22;41176;44.032;20.900;2023-07-16T10:17:25;34.90;72.10
50544;DHT22;41176;44.032;20.900;2023-07-16T10:19:58;35.00;70.80
50544;DHT22;41176;44.032;20.900;2023-07-16T10:22:45;35.00;72.10
50544;DHT22;41176;44.032;20.900;2023-07-16T10:25:23;35.20;72.70
50544;DHT22;41176;44.032;20.900;2023-07-16T10:27:50;35.30;69.50
50544;DHT22;41176;44.032;20.900;2023-07-16T10:30:17;35.40;71.40
50544;DHT22;41176;44.032;20.900;2023-07-16T10:32:43;35.30;70.10
50544;DHT22;41176;44.032;20.900;2023-07-16T10:35:09;35.20;67.90
50544;DHT22;41176;44.032;20.900;2023-07-16T10:37:36;35.10;68.40
50544;DHT22;41176;44.032;20.900;2023-07-16T10:40:03;35.00;69.40
50544;DHT22;41176;44.032;20.900;2023-07-16T10:42:29;35.00;69.30
50544;DHT22;41176;44.032;20.900;2023-07-16T10:44:59;35.00;69.10
50544;DHT22;41176;44.032;20.900;2023-07-16T10:47:33;35.20;69.50
50544;DHT22;41176;44.032;20.900;2023-07-16T10:50:00;35.50;67.90
50544;DHT22;41176;44.032;20.900;2023-07-16T10:52:26;35.60;67.80
50544;DHT22;41176;44.032;20.900;2023-07-16T10:54:53;35.70;66.20
50544;DHT22;41176;44.032;20.900;2023-07-16T10:57:23;35.60;67.00
50544;DHT22;41176;44.032;20.900;2023-07-16T10:59:51;35.80;67.00
50544;DHT22;41176;44.032;20.900;2023-07-16T11:02:17;35.90;67.40
50544;DHT22;41176;44.032;20.900;2023-07-16T11:04:47;35.90;67.00
50544;DHT22;41176;44.032;20.900;2023-07-16T11:07:14;35.90;68.10
50544;DHT22;41176;44.032;20.900;2023-07-16T11:09:43;36.00;67.80
50544;DHT22;41176;44.032;20.900;2023-07-16T11:12:14;36.10;65.50
50544;DHT22;41176;44.032;20.900;2023-07-16T11:14:46;36.00;65.20
50544;DHT22;41176;44.032;20.900;2023-07-16T11:17:13;36.10;67.50
50544;DHT22;41176;44.032;20.900;2023-07-16T11:19:39;36.10;64.20
50544;DHT22;41176;44.032;20.900;2023-07-16T11:22:06;36.20;65.90
50544;DHT22;41176;44.032;20.900;2023-07-16T11:24:43;36.40;64.40
50544;DHT22;41176;44.032;20.900;2023-07-16T11:27:21;36.50;63.80
50544;DHT22;41176;44.032;20.900;2023-07-16T11:29:47;36.50;62.50
50544;DHT22;41176;44.032;20.900;2023-07-16T11:32:36;36.20;65.10
50544;DHT22;41176;44.032;20.900;2023-07-16T11:35:05;36.20;66.00
50544;DHT22;41176;44.032;20.900;2023-07-16T11:37:32;36.50;65.30
50544;DHT22;41176;44.032;20.900;2023-07-16T11:40:06;36.70;63.70
50544;DHT22;41176;44.032;20.900;2023-07-16T11:42:39;36.70;63.30
50544;DHT22;41176;44.032;20.900;2023-07-16T11:45:20;36.70;63.60
50544;DHT22;41176;44.032;20.900;2023-07-16T11:47:46;36.70;62.70
50544;DHT22;41176;44.032;20.900;2023-07-16T11:50:12;36.80;63.80
50544;DHT22;41176;44.032;20.900;2023-07-16T11:52:39;36.90;62.70
50544;DHT22;41176;44.032;20.900;2023-07-16T11:55:05;37.00;66.30
50544;DHT22;41176;44.032;20.900;2023-07-16T11:57:31;37.00;64.60
50544;DHT22;41176;44.032;20.900;2023-07-16T11:59:56;37.00;61.80
50544;DHT22;41176;44.032;20.900;2023-07-16T12:02:22;37.00;62.30
50544;DHT22;41176;44.032;20.900;2023-07-16T12:04:51;37.10;62.60
50544;DHT22;41176;44.032;20.900;2023-07-16T12:07:37;37.20;62.90
50544;DHT22;41176;44.032;20.900;2023-07-16T12:10:05;37.40;63.90
50544;DHT22;41176;44.032;20.900;2023-07-16T12:12:32;37.60;63.70
50544;DHT22;41176;44.032;20.900;2023-07-16T12:15:01;37.50;64.00
50544;DHT22;41176;44.032;20.900;2023-07-16T12:17:26;37.50;65.60
50544;DHT22;41176;44.032;20.900;2023-07-16T12:19:52;37.60;63.80
50544;DHT22;41176;44.032;20.900;2023-07-16T12:22:31;37.60;64.80
50544;DHT22;41176;44.032;20.900;2023-07-16T12:25:12;37.70;63.80
50544;DHT22;41176;44.032;20.900;2023-07-16T12:27:47;37.80;62.70
50544;DHT22;41176;44.032;20.900;2023-07-16T12:30:29;37.80;63.70
50544;DHT22;41176;44.032;20.900;2023-07-16T12:32:54;37.90;63.00
50544;DHT22;41176;44.032;20.900;2023-07-16T12:35:20;37.90;62.80
50544;DHT22;41176;44.032;20.900;2023-07-16T12:37:46;38.10;62.40
50544;DHT22;41176;44.032;20.900;2023-07-16T12:40:12;38.10;62.90
50544;DHT22;41176;44.032;20.900;2023-07-16T12:42:37;38.10;63.20
50544;DHT22;41176;44.032;20.900;2023-07-16T12:45:03;38.20;62.50
50544;DHT22;41176;44.032;20.900;2023-07-16T12:47:29;38.20;62.10
50544;DHT22;41176;44.032;20.900;2023-07-16T12:49:55;38.20;61.60
50544;DHT22;41176;44.032;20.900;2023-07-16T12:52:21;37.90;59.50
50544;DHT22;41176;44.032;20.900;2023-07-16T12:54:46;37.70;60.00
50544;DHT22;41176;44.032;20.900;2023-07-16T12:57:13;37.50;60.90
50544;DHT22;41176;44.032;20.900;2023-07-16T12:59:39;37.30;62.90
50544;DHT22;41176;44.032;20.900;2023-07-16T13:02:05;37.30;63.40
50544;DHT22;41176;44.032;20.900;2023-07-16T13:04:34;37.30;60.60
50544;DHT22;41176;44.032;20.900;2023-07-16T13:07:00;37.20;62.50
50544;DHT22;41176;44.032;20.900;2023-07-16T13:09:26;37.00;61.80
50544;DHT22;41176;44.032;20.900;2023-07-16T13:18:24;37.20;63.90
50544;DHT22;41176;44.032;20.900;2023-07-16T13:20:51;37.60;61.20
50544;DHT22;41176;44.032;20.900;2023-07-16T13:23:17;37.60;61.30
50544;DHT22;41176;44.032;20.900;2023-07-16T13:25:43;37.60;61.80
50544;DHT22;41176;44.032;20.900;2023-07-16T13:28:57;37.80;61.90
50544;DHT22;41176;44.032;20.900;2023-07-16T13:31:41;37.90;60.10
50544;DHT22;41176;44.032;20.900;2023-07-16T13:37:37;37.90;59.90
50544;DHT22;41176;44.032;20.900;2023-07-16T13:40:05;37.80;59.90
50544;DHT22;41176;44.032;20.900;2023-07-16T13:42:33;37.90;59.20
50544;DHT22;41176;44.032;20.900;2023-07-16T13:45:17;37.90;59.50
50544;DHT22;41176;44.032;20.900;2023-07-16T13:48:07;37.90;61.20
50544;DHT22;41176;44.032;20.900;2023-07-16T13:50:43;37.90;60.50
50544;DHT22;41176;44.032;20.900;2023-07-16T13:53:09;37.90;62.40
50544;DHT22;41176;44.032;20.900;2023-07-16T13:55:35;37.90;60.40
50544;DHT22;41176;44.032;20.900;2023-07-16T13:58:00;37.90;60.50
50544;DHT22;41176;44.032;20.900;2023-07-16T14:00:29;38.10;61.00
50544;DHT22;41176;44.032;20.900;2023-07-16T14:02:55;38.20;60.60
50544;DHT22;41176;44.032;20.900;2023-07-16T14:05:21;38.20;60.60
50544;DHT22;41176;44.032;20.900;2023-07-16T14:07:48;38.30;60.60
50544;DHT22;41176;44.032;20.900;2023-07-16T14:10:15;38.30;60.10
50544;DHT22;41176;44.032;20.900;2023-07-16T14:12:40;38.40;59.70
50544;DHT22;41176;44.032;20.900;2023-07-16T14:15:13;38.50;59.60
50544;DHT22;41176;44.032;20.900;2023-07-16T14:17:39;38.40;60.00
50544;DHT22;41176;44.032;20.900;2023-07-16T14:20:11;38.50;59.30
50544;DHT22;41176;44.032;20.900;2023-07-16T14:22:37;38.40;59.70
50544;DHT22;41176;44.032;20.900;2023-07-16T14:25:03;38.20;59.60
50544;DHT22;41176;44.032;20.900;2023-07-16T14:27:32;38.10;61.60
50544;DHT22;41176;44.032;20.900;2023-07-16T14:30:01;38.30;61.30
50544;DHT22;41176;44.032;20.900;2023-07-16T14:32:30;38.50;60.30
50544;DHT22;41176;44.032;20.900;2023-07-16T14:35:00;38.70;60.90
50544;DHT22;41176;44.032;20.900;2023-07-16T14:37:26;38.70;59.80
50544;DHT22;41176;44.032;20.900;2023-07-16T14:40:14;38.60;59.90
50544;DHT22;41176;44.032;20.900;2023-07-16T14:42:49;38.50;61.70
50544;DHT22;41176;44.032;20.900;2023-07-16T14:45:27;38.40;60.80
50544;DHT22;41176;44.032;20.900;2023-07-16T14:47:53;38.50;60.50
50544;DHT22;41176;44.032;20.900;2023-07-16T14:50:41;38.50;61.10
50544;DHT22;41176;44.032;20.900;2023-07-16T15:00:25;38.00;60.30
50544;DHT22;41176;44.032;20.900;2023-07-16T15:05:31;37.50;62.20
50544;DHT22;41176;44.032;20.900;2023-07-16T15:08:10;37.70;61.40
50544;DHT22;41176;44.032;20.900;2023-07-16T15:10:35;37.70;62.30
50544;DHT22;41176;44.032;20.900;2023-07-16T15:13:07;37.80;61.50
50544;DHT22;41176;44.032;20.900;2023-07-16T15:15:37;37.70;60.10
50544;DHT22;41176;44.032;20.900;2023-07-16T15:18:19;37.50;61.10
50544;DHT22;41176;44.032;20.900;2023-07-16T15:20:45;37.50;61.90
50544;DHT22;41176;44.032;20.900;2023-07-16T15:23:20;37.60;59.90
50544;DHT22;41176;44.032;20.900;2023-07-16T15:26:00;37.70;62.10
50544;DHT22;41176;44.032;20.900;2023-07-16T15:28:26;37.50;59.70
50544;DHT22;41176;44.032;20.900;2023-07-16T15:30:51;37.30;59.80
50544;DHT22;41176;44.032;20.900;2023-07-16T15:33:17;37.30;61.60
50544;DHT22;41176;44.032;20.900;2023-07-16T15:35:43;37.20;62.00
50544;DHT22;41176;44.032;20.900;2023-07-16T15:38:09;37.30;60.40
50544;DHT22;41176;44.032;20.900;2023-07-16T15:40:38;37.40;60.10
50544;DHT22;41176;44.032;20.900;2023-07-16T15:43:06;37.50;60.90